Time;durP1;ratioP1;P1;durP2;ratioP2;P2;SDS_P1;SDS_P2;PMS_P1;PMS_P2;Temp;Humidity;BMP_temperature;BMP_pressure;BME280_temperature;BME280_humidity;BME280_pressure;Samples;Min_cycle;Max_cycle;Signal;HPM_P1;HPM_P2
2024/02/16 00:02:05;;;;;;;6.25;2.38;;;;;;;;;;5070020;28;20455;-74
2024/02/16 00:04:31;;;;;;;7.90;2.20;;;;;;;;;;5078785;28;20485;-75
2024/02/16 00:06:58;;;;;;;7.55;2.15;;;;;;;;;;5073494;28;20052;-75
2024/02/16 00:09:25;;;;;;;9.38;2.50;;;;;;;;;;5077675;28;20876;-74
2024/02/16 00:11:52;;;;;;;6.30;2.58;;;;;;;;;;5064000;28;20499;-74
2024/02/16 00:14:19;;;;;;;4.23;2.20;;;;;;;;;;5051896;28;20766;-75
2024/02/16 00:16:47;;;;;;;6.45;2.15;;;;;;;;;;5054302;28;20480;-74
2024/02/16 00:19:13;;;;;;;3.53;2.47;;;;;;;;;;5069515;28;20045;-74
2024/02/16 00:21:42;;;;;;;5.38;2.33;;;;;;;;;;5064259;28;20087;-74
2024/02/16 00:24:08;;;;;;;4.90;2.05;;;;;;;;;;5047693;28;20113;-74
2024/02/16 00:26:35;;;;;;;5.57;2.10;;;;;;;;;;5066966;28;20155;-74
2024/02/16 00:29:02;;;;;;;6.40;2.50;;;;;;;;;;5078158;28;20051;-73
2024/02/16 00:31:28;;;;;;;4.03;2.00;;;;;;;;;;5071970;28;20145;-75
2024/02/16 00:33:54;;;;;;;3.97;1.90;;;;;;;;;;5067591;28;20051;-73
2024/02/16 00:36:21;;;;;;;7.30;2.58;;;;;;;;;;5070894;28;21507;-73
2024/02/16 00:38:47;;;;;;;6.93;2.13;;;;;;;;;;5064143;28;20045;-73
2024/02/16 00:41:21;;;;;;;4.88;2.08;;;;;;;;;;5068499;28;20759;-75
2024/02/16 00:43:47;;;;;;;5.20;2.38;;;;;;;;;;5073233;28;20093;-74
2024/02/16 00:46:14;;;;;;;5.13;2.30;;;;;;;;;;5061121;28;20055;-74
2024/02/16 00:48:42;;;;;;;6.38;2.33;;;;;;;;;;5073452;28;20047;-75
2024/02/16 00:51:08;;;;;;;7.32;2.10;;;;;;;;;;5085275;28;20059;-75
2024/02/16 00:53:35;;;;;;;6.13;2.22;;;;;;;;;;5059687;28;20119;-74
2024/02/16 00:56:02;;;;;;;5.60;2.10;;;;;;;;;;5064851;28;20155;-74
2024/02/16 00:58:29;;;;;;;6.20;2.05;;;;;;;;;;5078444;28;20153;-75
2024/02/16 01:00:55;;;;;;;5.03;1.92;;;;;;;;;;5083906;28;20075;-75
2024/02/16 01:03:22;;;;;;;7.00;2.20;;;;;;;;;;5083395;28;20160;-74
2024/02/16 01:05:49;;;;;;;3.75;2.30;;;;;;;;;;5068411;28;20048;-74
2024/02/16 01:08:15;;;;;;;5.95;2.40;;;;;;;;;;5090597;28;20082;-75
2024/02/16 01:10:41;;;;;;;6.22;2.10;;;;;;;;;;5089876;28;20072;-74
2024/02/16 01:13:10;;;;;;;9.20;2.50;;;;;;;;;;5081240;28;20043;-74
2024/02/16 01:15:40;;;;;;;4.72;2.15;;;;;;;;;;5089954;28;20091;-78
2024/02/16 01:18:06;;;;;;;6.72;2.28;;;;;;;;;;5080226;28;20681;-79
2024/02/16 01:20:33;;;;;;;6.53;2.40;;;;;;;;;;5069463;28;20048;-80
2024/02/16 01:22:59;;;;;;;6.32;2.08;;;;;;;;;;5085361;28;20043;-80
2024/02/16 01:25:26;;;;;;;5.07;2.58;;;;;;;;;;5068793;28;20043;-80
2024/02/16 01:27:52;;;;;;;8.98;2.60;;;;;;;;;;5089339;28;20128;-79
2024/02/16 01:30:19;;;;;;;7.13;2.60;;;;;;;;;;5086571;28;20159;-79
2024/02/16 01:32:46;;;;;;;7.55;2.30;;;;;;;;;;5079703;28;20059;-77
2024/02/16 01:35:16;;;;;;;3.78;2.13;;;;;;;;;;5084823;28;20055;-80
2024/02/16 01:37:42;;;;;;;6.57;2.45;;;;;;;;;;5060508;28;20044;-78
2024/02/16 01:40:13;;;;;;;4.20;2.30;;;;;;;;;;5080523;28;20958;-80
2024/02/16 01:42:48;;;;;;;5.97;2.30;;;;;;;;;;5081573;28;20302;-78
2024/02/16 01:45:18;;;;;;;6.18;2.25;;;;;;;;;;5076333;28;20048;-80
2024/02/16 01:47:46;;;;;;;5.30;2.33;;;;;;;;;;5081021;28;20051;-78
2024/02/16 01:50:14;;;;;;;4.90;2.42;;;;;;;;;;5083773;28;20083;-79
2024/02/16 01:52:41;;;;;;;6.28;2.35;;;;;;;;;;5088083;28;20054;-78
2024/02/16 01:55:11;;;;;;;3.83;2.15;;;;;;;;;;5088407;28;20086;-79
2024/02/16 01:57:39;;;;;;;4.75;2.17;;;;;;;;;;5089490;28;20055;-78
2024/02/16 02:00:07;;;;;;;3.38;2.00;;;;;;;;;;5078054;28;20127;-78
2024/02/16 02:02:34;;;;;;;6.85;2.55;;;;;;;;;;5093290;27;20052;-79
2024/02/16 02:05:00;;;;;;;6.38;2.75;;;;;;;;;;5098486;27;20044;-78
2024/02/16 02:07:27;;;;;;;6.72;2.30;;;;;;;;;;5088282;28;20040;-80
2024/02/16 02:09:54;;;;;;;5.95;2.33;;;;;;;;;;5080463;28;20056;-80
2024/02/16 02:12:22;;;;;;;7.32;3.50;;;;;;;;;;5075039;28;20139;-80
2024/02/16 02:14:49;;;;;;;4.30;2.23;;;;;;;;;;5057210;28;20040;-80
2024/02/16 02:17:15;;;;;;;9.30;2.60;;;;;;;;;;5079472;28;20678;-81
2024/02/16 02:19:42;;;;;;;5.53;2.47;;;;;;;;;;5079606;28;20487;-80
2024/02/16 02:22:11;;;;;;;8.18;2.50;;;;;;;;;;5103683;27;20048;-78
2024/02/16 02:24:38;;;;;;;3.20;2.20;;;;;;;;;;5059743;28;20047;-80
2024/02/16 02:27:04;;;;;;;6.40;2.03;;;;;;;;;;5076255;28;20071;-75
2024/02/16 02:29:31;;;;;;;5.82;2.47;;;;;;;;;;5064725;28;20126;-75
2024/02/16 02:31:57;;;;;;;4.82;2.30;;;;;;;;;;5083882;28;20110;-75
2024/02/16 02:34:24;;;;;;;4.00;2.20;;;;;;;;;;5073941;28;20046;-75
2024/02/16 02:36:50;;;;;;;7.78;2.90;;;;;;;;;;5079145;28;20041;-74
2024/02/16 02:39:17;;;;;;;4.43;2.67;;;;;;;;;;5082774;28;20887;-75
2024/02/16 02:41:43;;;;;;;4.45;2.42;;;;;;;;;;5059962;28;20076;-74
2024/02/16 02:44:11;;;;;;;4.43;2.42;;;;;;;;;;5084842;28;20055;-74
2024/02/16 02:46:37;;;;;;;4.45;2.28;;;;;;;;;;5055756;28;20071;-75
2024/02/16 02:49:04;;;;;;;4.93;2.22;;;;;;;;;;5087159;28;20058;-74
2024/02/16 02:51:33;;;;;;;7.65;2.63;;;;;;;;;;5064682;28;20048;-75
2024/02/16 02:54:00;;;;;;;4.13;2.30;;;;;;;;;;5073380;28;20059;-74
2024/02/16 02:56:26;;;;;;;5.85;2.72;;;;;;;;;;5085196;28;20048;-73
2024/02/16 02:58:53;;;;;;;4.93;2.13;;;;;;;;;;5080083;28;20127;-74
2024/02/16 03:01:22;;;;;;;5.03;2.22;;;;;;;;;;5079909;28;20101;-75
2024/02/16 03:03:49;;;;;;;6.07;2.70;;;;;;;;;;5083205;28;20820;-76
2024/02/16 03:06:18;;;;;;;7.50;2.50;;;;;;;;;;5065873;28;20064;-75
2024/02/16 03:08:45;;;;;;;5.10;2.60;;;;;;;;;;5093222;28;20052;-74
2024/02/16 03:11:12;;;;;;;4.35;2.00;;;;;;;;;;5077593;28;20741;-75
2024/02/16 03:13:38;;;;;;;6.40;2.40;;;;;;;;;;5057716;28;20552;-74
2024/02/16 03:16:04;;;;;;;5.88;2.20;;;;;;;;;;5063058;28;20102;-74
2024/02/16 03:18:31;;;;;;;8.77;2.53;;;;;;;;;;5063521;28;20072;-74
2024/02/16 03:20:58;;;;;;;5.10;2.63;;;;;;;;;;5059544;28;20051;-74
2024/02/16 03:23:25;;;;;;;7.05;2.85;;;;;;;;;;5078525;28;20881;-74
2024/02/16 03:25:51;;;;;;;3.85;2.25;;;;;;;;;;5067157;28;20067;-75
2024/02/16 03:28:17;;;;;;;4.90;2.47;;;;;;;;;;5070370;28;20045;-74
2024/02/16 03:30:44;;;;;;;6.18;2.50;;;;;;;;;;5065578;28;20086;-76
2024/02/16 03:33:10;;;;;;;6.43;2.13;;;;;;;;;;5070667;28;20048;-74
2024/02/16 03:35:37;;;;;;;3.25;2.03;;;;;;;;;;5078821;28;20048;-76
2024/02/16 03:38:05;;;;;;;4.75;2.40;;;;;;;;;;5097642;28;20115;-75
2024/02/16 03:40:31;;;;;;;6.07;2.40;;;;;;;;;;5081482;28;20443;-74
2024/02/16 03:42:58;;;;;;;5.97;2.50;;;;;;;;;;5081304;28;20083;-74
2024/02/16 03:45:26;;;;;;;5.28;2.20;;;;;;;;;;5065327;28;20055;-75
2024/02/16 03:47:54;;;;;;;3.53;1.98;;;;;;;;;;5064150;28;20052;-74
2024/02/16 03:50:22;;;;;;;4.00;2.13;;;;;;;;;;5084086;28;20087;-75
2024/02/16 03:52:48;;;;;;;7.70;2.60;;;;;;;;;;5069530;28;20040;-74
2024/02/16 03:55:15;;;;;;;5.15;2.20;;;;;;;;;;5073813;28;20288;-75
2024/02/16 03:57:41;;;;;;;5.80;2.58;;;;;;;;;;5076364;28;20052;-74
2024/02/16 04:00:08;;;;;;;4.53;2.40;;;;;;;;;;5084277;28;20044;-74
2024/02/16 04:02:36;;;;;;;3.67;2.33;;;;;;;;;;5076603;28;20040;-75
2024/02/16 04:05:03;;;;;;;4.40;2.17;;;;;;;;;;5071585;28;20048;-74
2024/02/16 04:07:30;;;;;;;3.90;2.17;;;;;;;;;;5067458;28;20043;-74
2024/02/16 04:09:56;;;;;;;3.60;2.17;;;;;;;;;;5078427;28;20058;-75
2024/02/16 04:12:22;;;;;;;8.32;2.30;;;;;;;;;;5085978;28;20048;-74
2024/02/16 04:14:49;;;;;;;4.05;2.42;;;;;;;;;;5055508;28;20087;-76
2024/02/16 04:17:15;;;;;;;6.80;2.60;;;;;;;;;;5050459;28;20105;-75
2024/02/16 04:19:42;;;;;;;4.38;2.40;;;;;;;;;;5075863;28;20484;-75
2024/02/16 04:22:08;;;;;;;8.40;2.50;;;;;;;;;;5078693;28;20040;-74
2024/02/16 04:24:35;;;;;;;3.78;2.20;;;;;;;;;;5073404;28;20136;-74
2024/02/16 04:27:01;;;;;;;4.35;2.25;;;;;;;;;;5062162;28;20131;-75
2024/02/16 04:29:31;;;;;;;6.45;2.50;;;;;;;;;;5064103;28;20126;-74
2024/02/16 04:31:58;;;;;;;5.35;2.28;;;;;;;;;;5078658;28;20050;-74
2024/02/16 04:34:24;;;;;;;5.18;2.03;;;;;;;;;;5056703;28;20036;-74
2024/02/16 04:36:51;;;;;;;6.13;2.20;;;;;;;;;;5074932;28;20058;-74
2024/02/16 04:39:17;;;;;;;3.90;2.05;;;;;;;;;;5080628;28;20075;-75
2024/02/16 04:41:43;;;;;;;4.93;2.20;;;;;;;;;;5062647;28;20051;-74
2024/02/16 04:44:13;;;;;;;6.20;2.58;;;;;;;;;;5057692;28;20063;-75
2024/02/16 04:46:39;;;;;;;4.50;2.10;;;;;;;;;;5058852;28;20135;-75
2024/02/16 04:49:06;;;;;;;4.40;2.38;;;;;;;;;;5084591;28;20245;-75
2024/02/16 04:51:32;;;;;;;5.75;2.22;;;;;;;;;;5080449;28;20071;-76
2024/02/16 04:53:59;;;;;;;5.53;2.25;;;;;;;;;;5083335;28;20867;-74
2024/02/16 04:56:25;;;;;;;7.43;2.78;;;;;;;;;;5057948;28;20040;-75
2024/02/16 04:58:52;;;;;;;4.20;2.28;;;;;;;;;;5075643;28;20098;-75
2024/02/16 05:01:18;;;;;;;4.22;2.47;;;;;;;;;;5054171;28;20163;-74
2024/02/16 05:03:44;;;;;;;3.67;2.30;;;;;;;;;;5071018;28;20036;-74
2024/02/16 05:06:11;;;;;;;5.95;2.70;;;;;;;;;;5057857;28;20056;-75
2024/02/16 05:08:38;;;;;;;7.60;2.65;;;;;;;;;;5078016;28;20393;-76
2024/02/16 05:11:05;;;;;;;5.78;2.55;;;;;;;;;;5079377;28;20143;-74
2024/02/16 05:13:32;;;;;;;5.93;2.72;;;;;;;;;;5065660;28;20381;-75
2024/02/16 05:15:58;;;;;;;8.00;2.80;;;;;;;;;;5069977;28;20045;-75
2024/02/16 05:18:25;;;;;;;5.15;2.53;;;;;;;;;;5076598;28;20048;-74
2024/02/16 05:20:51;;;;;;;4.90;2.78;;;;;;;;;;5058986;28;20660;-75
2024/02/16 05:23:18;;;;;;;6.30;2.58;;;;;;;;;;5078671;28;20102;-75
2024/02/16 05:25:44;;;;;;;3.60;2.20;;;;;;;;;;5069922;28;20106;-75
2024/02/16 05:28:12;;;;;;;5.15;2.55;;;;;;;;;;5055511;28;20107;-74
2024/02/16 05:30:38;;;;;;;3.93;2.20;;;;;;;;;;5061395;28;20428;-75
2024/02/16 05:33:05;;;;;;;4.50;2.28;;;;;;;;;;5073676;28;20044;-74
2024/02/16 05:35:33;;;;;;;4.57;2.40;;;;;;;;;;5066132;28;20122;-75
2024/02/16 05:38:06;;;;;;;5.43;2.72;;;;;;;;;;5068860;28;20040;-74
2024/02/16 05:40:45;;;;;;;4.85;2.40;;;;;;;;;;5054962;28;20040;-75
2024/02/16 05:43:11;;;;;;;4.10;2.25;;;;;;;;;;5059857;28;20065;-75
2024/02/16 05:45:41;;;;;;;5.60;2.50;;;;;;;;;;5066275;28;20514;-75
2024/02/16 05:48:08;;;;;;;5.40;2.70;;;;;;;;;;5085774;28;20052;-75
2024/02/16 05:50:35;;;;;;;6.07;2.63;;;;;;;;;;5081561;28;20185;-74
2024/02/16 05:53:01;;;;;;;6.60;2.85;;;;;;;;;;5079998;28;20044;-75
2024/02/16 05:55:28;;;;;;;5.40;2.83;;;;;;;;;;5065416;28;20127;-75
2024/02/16 05:57:54;;;;;;;5.70;2.85;;;;;;;;;;5074554;28;20447;-75
2024/02/16 06:00:21;;;;;;;5.88;2.70;;;;;;;;;;5089141;28;20043;-74
2024/02/16 06:02:48;;;;;;;6.00;2.25;;;;;;;;;;5078531;28;20105;-75
2024/02/16 06:05:14;;;;;;;5.03;2.60;;;;;;;;;;5079161;28;20057;-75
2024/02/16 06:07:40;;;;;;;3.60;2.17;;;;;;;;;;5060656;28;20101;-76
2024/02/16 06:10:10;;;;;;;5.13;2.33;;;;;;;;;;5083724;28;20080;-75
2024/02/16 06:12:40;;;;;;;7.47;2.72;;;;;;;;;;5065436;28;20056;-76
2024/02/16 06:15:07;;;;;;;7.63;2.67;;;;;;;;;;5078770;28;20052;-76
2024/02/16 06:17:33;;;;;;;4.28;2.58;;;;;;;;;;5079252;28;20051;-75
2024/02/16 06:20:00;;;;;;;5.65;2.67;;;;;;;;;;5066398;28;20536;-75
2024/02/16 06:22:27;;;;;;;4.50;2.85;;;;;;;;;;5079205;28;20060;-75
2024/02/16 06:24:54;;;;;;;7.40;2.95;;;;;;;;;;5049232;28;20126;-74
2024/02/16 06:27:20;;;;;;;7.68;2.75;;;;;;;;;;5078265;28;20053;-75
2024/02/16 06:29:47;;;;;;;7.65;2.90;;;;;;;;;;5052912;28;21010;-75
2024/02/16 06:32:13;;;;;;;6.28;2.60;;;;;;;;;;5057979;28;20090;-75
2024/02/16 06:34:40;;;;;;;6.82;3.00;;;;;;;;;;5087173;28;20405;-75
2024/02/16 06:37:07;;;;;;;7.15;3.33;;;;;;;;;;5065611;28;20101;-75
2024/02/16 06:39:33;;;;;;;9.40;3.03;;;;;;;;;;5086557;28;20063;-76
2024/02/16 06:42:00;;;;;;;5.22;2.47;;;;;;;;;;5053081;28;20036;-76
2024/02/16 06:44:26;;;;;;;10.82;2.88;;;;;;;;;;5063447;28;20462;-75
2024/02/16 06:46:53;;;;;;;9.43;2.83;;;;;;;;;;5074861;28;20051;-75
2024/02/16 06:49:20;;;;;;;5.70;2.80;;;;;;;;;;5079255;28;20072;-76
2024/02/16 06:51:46;;;;;;;6.45;3.03;;;;;;;;;;5052734;28;20084;-75
2024/02/16 06:54:14;;;;;;;10.60;2.75;;;;;;;;;;5075153;28;20044;-75
2024/02/16 06:56:40;;;;;;;4.18;2.60;;;;;;;;;;5073049;28;20055;-75
2024/02/16 06:59:08;;;;;;;5.55;2.65;;;;;;;;;;5080543;28;20797;-75
2024/02/16 07:01:34;;;;;;;6.38;3.05;;;;;;;;;;5067514;28;20067;-76
2024/02/16 07:04:01;;;;;;;6.68;2.95;;;;;;;;;;5078669;28;20124;-75
2024/02/16 07:06:28;;;;;;;5.18;2.83;;;;;;;;;;5054430;28;20048;-76
2024/02/16 07:08:55;;;;;;;6.55;3.03;;;;;;;;;;5071017;28;20366;-75
2024/02/16 07:11:21;;;;;;;3.67;2.40;;;;;;;;;;5059390;28;20048;-75
2024/02/16 07:13:48;;;;;;;8.15;3.47;;;;;;;;;;5069768;28;20052;-76
2024/02/16 07:16:14;;;;;;;6.90;3.10;;;;;;;;;;5063834;28;20048;-75
2024/02/16 07:18:41;;;;;;;6.43;2.70;;;;;;;;;;5064405;28;20051;-76
2024/02/16 07:21:09;;;;;;;8.10;3.00;;;;;;;;;;5084734;28;20093;-78
2024/02/16 07:23:38;;;;;;;3.55;2.45;;;;;;;;;;5087674;27;20488;-78
2024/02/16 07:26:05;;;;;;;7.05;3.10;;;;;;;;;;5067989;28;20048;-78
2024/02/16 07:28:33;;;;;;;5.85;2.78;;;;;;;;;;5063771;28;20127;-79
2024/02/16 07:30:59;;;;;;;5.68;2.90;;;;;;;;;;5077116;28;20044;-79
2024/02/16 07:33:28;;;;;;;7.65;3.17;;;;;;;;;;5076300;28;20063;-78
2024/02/16 07:35:55;;;;;;;6.45;3.25;;;;;;;;;;5048910;28;20389;-78
2024/02/16 07:38:22;;;;;;;10.57;3.25;;;;;;;;;;5085176;28;20070;-78
2024/02/16 07:40:50;;;;;;;9.90;3.30;;;;;;;;;;5094053;28;20050;-79
2024/02/16 07:43:17;;;;;;;4.85;3.00;;;;;;;;;;5103311;28;20040;-79
2024/02/16 07:45:44;;;;;;;6.90;3.35;;;;;;;;;;5078421;28;20091;-79
2024/02/16 07:48:10;;;;;;;7.93;3.30;;;;;;;;;;5073310;28;20094;-78
2024/02/16 07:50:37;;;;;;;6.65;3.33;;;;;;;;;;5092482;28;20439;-77
2024/02/16 07:53:04;;;;;;;5.38;3.10;;;;;;;;;;5077182;28;20088;-78
2024/02/16 07:55:30;;;;;;;6.05;3.40;;;;;;;;;;5062302;28;20136;-78
2024/02/16 07:57:56;;;;;;;5.43;2.80;;;;;;;;;;5073016;28;20056;-78
2024/02/16 08:00:23;;;;;;;7.53;3.15;;;;;;;;;;5078766;28;20106;-79
2024/02/16 08:02:49;;;;;;;6.97;3.35;;;;;;;;;;5079098;28;20511;-78
2024/02/16 08:05:18;;;;;;;7.45;3.42;;;;;;;;;;5087067;28;20105;-79
2024/02/16 08:07:46;;;;;;;7.20;3.30;;;;;;;;;;5067192;28;20041;-78
2024/02/16 08:10:13;;;;;;;7.90;3.45;;;;;;;;;;5071337;28;20191;-78
2024/02/16 08:12:40;;;;;;;6.25;3.40;;;;;;;;;;5075481;28;20492;-78
2024/02/16 08:15:07;;;;;;;7.93;3.70;;;;;;;;;;5079305;28;20127;-78
2024/02/16 08:17:34;;;;;;;9.30;3.63;;;;;;;;;;5072609;28;20048;-76
2024/02/16 08:20:01;;;;;;;5.72;3.10;;;;;;;;;;5086053;28;20050;-76
2024/02/16 08:22:27;;;;;;;5.07;3.25;;;;;;;;;;5064128;28;20055;-76
2024/02/16 08:24:54;;;;;;;6.38;3.00;;;;;;;;;;5067902;28;20079;-77
2024/02/16 08:27:21;;;;;;;5.82;3.45;;;;;;;;;;5065860;28;20451;-76
2024/02/16 08:29:47;;;;;;;7.35;3.30;;;;;;;;;;5060730;28;20044;-76
2024/02/16 08:32:13;;;;;;;7.90;3.25;;;;;;;;;;5065641;28;20369;-76
2024/02/16 08:34:40;;;;;;;7.03;3.35;;;;;;;;;;5088090;28;20079;-76
2024/02/16 08:37:07;;;;;;;9.30;3.70;;;;;;;;;;5068039;28;20045;-76
2024/02/16 08:39:34;;;;;;;10.23;4.10;;;;;;;;;;5068321;28;20143;-76
2024/02/16 08:42:01;;;;;;;7.47;3.42;;;;;;;;;;5065624;28;20059;-76
2024/02/16 08:44:28;;;;;;;8.32;3.70;;;;;;;;;;5073694;28;20717;-76
2024/02/16 08:46:54;;;;;;;8.77;3.53;;;;;;;;;;5059944;28;20040;-76
2024/02/16 08:49:21;;;;;;;6.50;3.67;;;;;;;;;;5081804;28;20050;-76
2024/02/16 08:51:50;;;;;;;7.20;3.22;;;;;;;;;;5071876;28;20040;-76
2024/02/16 08:54:18;;;;;;;9.70;3.67;;;;;;;;;;5057636;28;20132;-76
2024/02/16 08:56:45;;;;;;;;;;;;;;;;;;5073285;28;20051;-76
2024/02/16 08:59:11;;;;;;;10.52;3.60;;;;;;;;;;5070624;28;19928;-76
2024/02/16 09:01:39;;;;;;;7.82;3.55;;;;;;;;;;5059203;28;20067;-77
2024/02/16 09:04:06;;;;;;;6.70;3.92;;;;;;;;;;5081176;28;20055;-76
2024/02/16 09:06:34;;;;;;;6.35;3.40;;;;;;;;;;5069616;28;20044;-76
2024/02/16 09:09:01;;;;;;;;;;;;;;;;;;5051182;28;20128;-76
2024/02/16 09:11:28;;;;;;;6.75;3.78;;;;;;;;;;5065974;28;19923;-76
2024/02/16 09:13:54;;;;;;;8.40;3.95;;;;;;;;;;5050403;28;20076;-76
2024/02/16 09:16:21;;;;;;;5.80;2.92;;;;;;;;;;5058428;28;20140;-76
2024/02/16 09:18:50;;;;;;;6.03;3.67;;;;;;;;;;5072013;28;20068;-76
2024/02/16 09:21:17;;;;;;;9.23;3.80;;;;;;;;;;5077925;28;20052;-76
2024/02/16 09:23:43;;;;;;;8.23;3.58;;;;;;;;;;5070730;28;20135;-76
2024/02/16 09:26:10;;;;;;;11.82;3.58;;;;;;;;;;5078417;28;20080;-77
2024/02/16 09:28:41;;;;;;;8.68;3.45;;;;;;;;;;5075716;28;20143;-75
2024/02/16 09:31:10;;;;;;;8.32;4.05;;;;;;;;;;5084447;28;20052;-76
2024/02/16 09:33:38;;;;;;;11.00;4.03;;;;;;;;;;5066235;28;20094;-77
2024/02/16 09:36:05;;;;;;;9.32;3.72;;;;;;;;;;5080475;28;20793;-76
2024/02/16 09:38:32;;;;;;;8.57;4.18;;;;;;;;;;5065089;28;20640;-76
2024/02/16 09:40:59;;;;;;;7.65;3.33;;;;;;;;;;5067421;28;20076;-76
2024/02/16 09:43:27;;;;;;;6.40;3.53;;;;;;;;;;5076712;28;20508;-76
2024/02/16 09:45:54;;;;;;;10.27;3.67;;;;;;;;;;5075644;28;20541;-76
2024/02/16 09:48:21;;;;;;;10.43;3.70;;;;;;;;;;5072559;28;20463;-76
2024/02/16 09:50:51;;;;;;;9.60;4.63;;;;;;;;;;5083292;28;20512;-76
2024/02/16 09:53:19;;;;;;;11.02;4.15;;;;;;;;;;5055332;28;20056;-76
2024/02/16 09:55:48;;;;;;;11.43;3.70;;;;;;;;;;5078403;28;20044;-76
2024/02/16 09:58:17;;;;;;;;;;;;;;;;;;5082260;28;20055;-76
2024/02/16 10:00:50;;;;;;;10.80;3.97;;;;;;;;;;5104797;28;20665;-76
2024/02/16 10:03:24;;;;;;;7.75;3.80;;;;;;;;;;5051639;28;20045;-77
2024/02/16 10:05:51;;;;;;;8.65;4.07;;;;;;;;;;5084786;28;20044;-77
2024/02/16 10:08:19;;;;;;;10.83;4.20;;;;;;;;;;5063012;28;20044;-77
2024/02/16 10:10:45;;;;;;;8.43;4.95;;;;;;;;;;5077718;28;20487;-74
2024/02/16 10:13:12;;;;;;;7.40;4.40;;;;;;;;;;5080984;28;20105;-78
2024/02/16 10:15:39;;;;;;;10.57;4.00;;;;;;;;;;5063202;28;20052;-77
2024/02/16 10:18:06;;;;;;;9.02;4.55;;;;;;;;;;5079704;28;20056;-78
2024/02/16 10:20:34;;;;;;;8.52;4.60;;;;;;;;;;5061205;28;20052;-78
2024/02/16 10:23:03;;;;;;;11.23;4.57;;;;;;;;;;5072213;28;20063;-77
2024/02/16 10:25:32;;;;;;;9.27;4.13;;;;;;;;;;5056094;28;20457;-78
2024/02/16 10:28:03;;;;;;;7.70;4.20;;;;;;;;;;5068258;28;20040;-77
2024/02/16 10:30:33;;;;;;;8.30;4.50;;;;;;;;;;5095045;28;20048;-78
2024/02/16 10:32:59;;;;;;;7.72;4.15;;;;;;;;;;5082146;28;20047;-77
2024/02/16 10:35:28;;;;;;;11.75;4.97;;;;;;;;;;5086872;28;20407;-79
2024/02/16 10:37:56;;;;;;;10.75;4.63;;;;;;;;;;5071030;28;20052;-79
2024/02/16 10:40:23;;;;;;;9.82;4.85;;;;;;;;;;5086509;28;20107;-79
2024/02/16 10:42:53;;;;;;;10.80;5.18;;;;;;;;;;5065057;28;20048;-80
2024/02/16 10:45:20;;;;;;;9.13;5.07;;;;;;;;;;5066849;28;20052;-80
2024/02/16 10:47:46;;;;;;;9.32;5.00;;;;;;;;;;5084326;28;20177;-79
2024/02/16 10:50:13;;;;;;;9.35;5.05;;;;;;;;;;5079328;28;20063;-79
2024/02/16 10:52:43;;;;;;;11.50;5.05;;;;;;;;;;5075763;28;20132;-78
2024/02/16 10:55:10;;;;;;;8.70;4.47;;;;;;;;;;5073350;28;20054;-79
2024/02/16 10:57:36;;;;;;;9.70;5.35;;;;;;;;;;5089520;28;20083;-79
2024/02/16 11:00:08;;;;;;;10.30;5.05;;;;;;;;;;5068853;28;20068;-80
2024/02/16 11:02:50;;;;;;;8.80;5.30;;;;;;;;;;5063199;28;20056;-79
2024/02/16 11:05:18;;;;;;;8.23;4.93;;;;;;;;;;5069454;28;20553;-80
2024/02/16 11:07:44;;;;;;;9.93;5.70;;;;;;;;;;5070507;28;20064;-80
2024/02/16 11:10:14;;;;;;;10.18;5.82;;;;;;;;;;5072557;28;20498;-80
2024/02/16 11:12:45;;;;;;;11.15;5.47;;;;;;;;;;5079513;28;20135;-80
2024/02/16 11:15:13;;;;;;;10.45;6.03;;;;;;;;;;5066154;28;20106;-79
2024/02/16 11:17:39;;;;;;;10.20;5.80;;;;;;;;;;5077125;28;20122;-78
2024/02/16 11:20:06;;;;;;;11.50;5.70;;;;;;;;;;5061495;28;20044;-79
2024/02/16 11:22:36;;;;;;;13.07;5.78;;;;;;;;;;5074491;28;20497;-78
2024/02/16 11:25:04;;;;;;;11.32;6.43;;;;;;;;;;5069256;28;20791;-78
2024/02/16 11:27:31;;;;;;;13.38;5.90;;;;;;;;;;5078840;28;20044;-80
2024/02/16 11:29:59;;;;;;;12.63;6.68;;;;;;;;;;5084129;28;20416;-78
2024/02/16 11:32:26;;;;;;;11.32;6.38;;;;;;;;;;5053941;28;20137;-79
2024/02/16 11:34:52;;;;;;;14.77;6.95;;;;;;;;;;5066793;28;20093;-78
2024/02/16 11:37:19;;;;;;;13.30;6.85;;;;;;;;;;5083051;28;20083;-78
2024/02/16 11:39:46;;;;;;;12.45;7.30;;;;;;;;;;5083753;28;20483;-78
2024/02/16 11:42:18;;;;;;;16.38;8.02;;;;;;;;;;5081968;28;20060;-78
2024/02/16 11:44:55;;;;;;;12.35;7.82;;;;;;;;;;5063907;28;20059;-78
2024/02/16 11:47:26;;;;;;;13.43;7.95;;;;;;;;;;5061955;28;20163;-77
2024/02/16 11:50:01;;;;;;;13.35;8.15;;;;;;;;;;5086240;28;20106;-80
2024/02/16 11:52:28;;;;;;;12.02;7.90;;;;;;;;;;5081767;28;20097;-82
2024/02/16 11:54:55;;;;;;;11.73;7.40;;;;;;;;;;5063794;28;20052;-79
2024/02/16 11:57:27;;;;;;;13.57;8.38;;;;;;;;;;5062294;28;20055;-77
2024/02/16 11:59:55;;;;;;;15.63;8.43;;;;;;;;;;5076110;28;20050;-79
2024/02/16 12:02:24;;;;;;;13.05;8.75;;;;;;;;;;5050105;28;20132;-80
2024/02/16 12:05:00;;;;;;;15.07;8.35;;;;;;;;;;5070110;28;20045;-79
2024/02/16 12:07:30;;;;;;;14.10;8.38;;;;;;;;;;5044697;28;20045;-80
2024/02/16 12:10:00;;;;;;;14.27;9.00;;;;;;;;;;5076363;28;20048;-80
2024/02/16 12:12:27;;;;;;;12.27;8.70;;;;;;;;;;5087296;28;20039;-78
2024/02/16 12:14:54;;;;;;;10.73;7.63;;;;;;;;;;5070254;28;20484;-80
2024/02/16 12:17:21;;;;;;;11.13;8.38;;;;;;;;;;5079103;28;20562;-80
2024/02/16 12:19:47;;;;;;;15.65;9.75;;;;;;;;;;5066180;28;20452;-80
2024/02/16 12:22:18;;;;;;;15.07;8.35;;;;;;;;;;5079036;28;20384;-81
2024/02/16 12:24:48;;;;;;;13.10;8.52;;;;;;;;;;5067839;28;20047;-80
2024/02/16 12:27:15;;;;;;;11.63;8.10;;;;;;;;;;5080033;28;20911;-81
2024/02/16 12:29:41;;;;;;;10.40;7.88;;;;;;;;;;5071346;28;20129;-79
2024/02/16 12:32:11;;;;;;;10.40;7.68;;;;;;;;;;5065735;28;20089;-81
2024/02/16 12:34:37;;;;;;;10.48;7.07;;;;;;;;;;5070858;28;21422;-82
2024/02/16 12:37:06;;;;;;;9.38;7.20;;;;;;;;;;5057725;28;20063;-80
2024/02/16 12:39:34;;;;;;;12.95;7.60;;;;;;;;;;5077768;28;20037;-80
2024/02/16 12:42:00;;;;;;;9.80;7.90;;;;;;;;;;5062948;28;20079;-81
2024/02/16 12:44:27;;;;;;;10.55;6.75;;;;;;;;;;5070245;28;20101;-81
2024/02/16 12:46:53;;;;;;;11.23;8.27;;;;;;;;;;5082370;28;20654;-79
2024/02/16 12:49:22;;;;;;;10.35;7.13;;;;;;;;;;5068710;28;20052;-80
2024/02/16 12:51:49;;;;;;;8.32;6.53;;;;;;;;;;5059366;28;20075;-82
2024/02/16 12:54:18;;;;;;;10.20;7.60;;;;;;;;;;5044098;28;20056;-81
2024/02/16 12:56:45;;;;;;;9.20;7.25;;;;;;;;;;5075881;28;20048;-79
2024/02/16 12:59:12;;;;;;;9.65;6.88;;;;;;;;;;5067644;28;20060;-79
2024/02/16 13:01:38;;;;;;;10.20;6.75;;;;;;;;;;5084638;28;20176;-78
2024/02/16 13:04:05;;;;;;;11.85;7.60;;;;;;;;;;5068334;28;20463;-77
2024/02/16 13:06:32;;;;;;;8.90;6.63;;;;;;;;;;5069465;28;20170;-77
2024/02/16 13:08:59;;;;;;;8.98;7.13;;;;;;;;;;5077244;28;20047;-77
2024/02/16 13:11:25;;;;;;;11.15;6.85;;;;;;;;;;5068872;28;20047;-77
2024/02/16 13:13:52;;;;;;;10.48;8.15;;;;;;;;;;5066727;28;20128;-78
2024/02/16 13:16:18;;;;;;;11.60;7.60;;;;;;;;;;5102345;28;20559;-79
2024/02/16 13:18:45;;;;;;;12.60;7.65;;;;;;;;;;5060769;28;20048;-79
2024/02/16 13:21:12;;;;;;;10.98;7.43;;;;;;;;;;5062265;28;20052;-78
2024/02/16 13:23:38;;;;;;;10.48;8.15;;;;;;;;;;5079780;28;20052;-78
2024/02/16 13:26:05;;;;;;;9.82;7.90;;;;;;;;;;5077359;28;20048;-78
2024/02/16 13:28:33;;;;;;;10.52;8.25;;;;;;;;;;5067327;28;20044;-78
2024/02/16 13:30:59;;;;;;;12.23;8.02;;;;;;;;;;5059149;28;20040;-77
2024/02/16 13:33:26;;;;;;;13.65;8.40;;;;;;;;;;5066692;28;20139;-77
2024/02/16 13:35:54;;;;;;;10.90;8.82;;;;;;;;;;5075381;28;20051;-77
2024/02/16 13:38:21;;;;;;;10.57;8.27;;;;;;;;;;5062630;28;20052;-76
2024/02/16 13:40:49;;;;;;;12.02;8.68;;;;;;;;;;5051039;28;20048;-77
2024/02/16 13:43:15;;;;;;;11.60;8.73;;;;;;;;;;5072721;28;20143;-76
2024/02/16 13:45:50;;;;;;;12.75;9.18;;;;;;;;;;5091641;28;20053;-76
2024/02/16 13:48:17;;;;;;;11.90;8.75;;;;;;;;;;5062032;28;20118;-78
2024/02/16 13:50:45;;;;;;;9.75;8.30;;;;;;;;;;5073231;28;20076;-76
2024/02/16 13:53:12;;;;;;;11.55;8.05;;;;;;;;;;5064232;28;20113;-78
2024/02/16 13:55:43;;;;;;;11.98;8.13;;;;;;;;;;5070458;28;20048;-77
2024/02/16 13:58:10;;;;;;;10.68;7.22;;;;;;;;;;5055047;28;20780;-77
2024/02/16 14:00:37;;;;;;;10.23;7.32;;;;;;;;;;5092376;28;20070;-78
2024/02/16 14:03:11;;;;;;;9.00;6.70;;;;;;;;;;5071156;28;20461;-77
2024/02/16 14:05:38;;;;;;;9.55;6.95;;;;;;;;;;5053456;28;20131;-79
2024/02/16 14:08:05;;;;;;;9.65;6.43;;;;;;;;;;5070594;28;20040;-82
2024/02/16 14:10:34;;;;;;;7.22;5.40;;;;;;;;;;5084626;28;20131;-80
2024/02/16 14:13:01;;;;;;;8.48;5.80;;;;;;;;;;5069088;28;20183;-82
2024/02/16 14:15:28;;;;;;;7.47;5.88;;;;;;;;;;5089458;28;20583;-81
2024/02/16 14:17:57;;;;;;;8.98;5.93;;;;;;;;;;5073359;28;20056;-80
2024/02/16 14:20:24;;;;;;;7.18;5.65;;;;;;;;;;5084863;28;20441;-80
2024/02/16 14:22:51;;;;;;;7.20;5.20;;;;;;;;;;5083461;28;20047;-80
2024/02/16 14:25:18;;;;;;;6.43;5.43;;;;;;;;;;5067950;28;20056;-81
2024/02/16 14:27:45;;;;;;;7.50;5.47;;;;;;;;;;5075713;28;20052;-81
2024/02/16 14:30:13;;;;;;;8.38;5.00;;;;;;;;;;5077054;28;20056;-80
2024/02/16 14:32:41;;;;;;;7.00;4.82;;;;;;;;;;5072844;28;20087;-79
2024/02/16 14:35:07;;;;;;;6.13;4.70;;;;;;;;;;5077000;28;20105;-80
2024/02/16 14:37:34;;;;;;;6.03;3.88;;;;;;;;;;5081779;28;20427;-80
2024/02/16 14:40:01;;;;;;;6.82;4.47;;;;;;;;;;5068936;28;20109;-79
2024/02/16 14:42:28;;;;;;;7.35;4.65;;;;;;;;;;5075757;28;20102;-80